sensor_id;sensor_type;location;lat;lon;timestamp;temperature;humidity
14097;DHT22;7125;48.106;11.544;2023-05-01T00:02:13;9.60;99.90
14097;DHT22;7125;48.106;11.544;2023-05-01T00:04:41;9.60;99.90
14097;DHT22;7125;48.106;11.544;2023-05-01T00:07:08;9.60;99.90
14097;DHT22;7125;48.106;11.544;2023-05-01T00:09:35;9.50;99.90
14097;DHT22;7125;48.106;11.544;2023-05-01T00:12:02;9.50;99.90
14097;DHT22;7125;48.106;11.544;2023-05-01T00:14:31;9.50;99.90
14097;DHT22;7125;48.106;11.544;2023-05-01T00:16:58;9.50;99.90
14097;DHT22;7125;48.106;11.544;2023-05-01T00:19:25;9.40;99.90
14097;DHT22;7125;48.106;11.544;2023-05-01T00:21:52;9.40;99.90
14097;DHT22;7125;48.106;11.544;2023-05-01T00:24:19;9.40;99.90
14097;DHT22;7125;48.106;11.544;2023-05-01T00:26:46;9.40;99.90
14097;DHT22;7125;48.106;11.544;2023-05-01T00:29:13;9.40;99.90
14097;DHT22;7125;48.106;11.544;2023-05-01T00:31:43;9.40;99.90
14097;DHT22;7125;48.106;11.544;2023-05-01T00:34:10;9.30;99.90
14097;DHT22;7125;48.106;11.544;2023-05-01T00:36:37;9.40;99.90
14097;DHT22;7125;48.106;11.544;2023-05-01T00:39:04;9.30;99.90
14097;DHT22;7125;48.106;11.544;2023-05-01T00:41:32;9.30;99.90
14097;DHT22;7125;48.106;11.544;2023-05-01T00:44:00;9.30;99.90
14097;DHT22;7125;48.106;11.544;2023-05-01T00:46:27;9.30;99.90
14097;DHT22;7125;48.106;11.544;2023-05-01T00:48:57;9.20;99.90
14097;DHT22;7125;48.106;11.544;2023-05-01T00:51:25;9.20;99.90
14097;DHT22;7125;48.106;11.544;2023-05-01T00:53:55;9.10;99.90
14097;DHT22;7125;48.106;11.544;2023-05-01T00:56:22;9.10;99.90
14097;DHT22;7125;48.106;11.544;2023-05-01T00:58:51;9.00;99.90
14097;DHT22;7125;48.106;11.544;2023-05-01T01:01:19;9.00;99.90
14097;DHT22;7125;48.106;11.544;2023-05-01T01:03:46;8.90;99.90
14097;DHT22;7125;48.106;11.544;2023-05-01T01:06:20;8.90;99.90
14097;DHT22;7125;48.106;11.544;2023-05-01T01:08:56;8.80;99.90
14097;DHT22;7125;48.106;11.544;2023-05-01T01:11:35;8.80;99.90
14097;DHT22;7125;48.106;11.544;2023-05-01T01:14:10;8.70;99.90
14097;DHT22;7125;48.106;11.544;2023-05-01T01:16:44;8.60;99.90
14097;DHT22;7125;48.106;11.544;2023-05-01T01:19:35;8.60;99.90
14097;DHT22;7125;48.106;11.544;2023-05-01T01:22:12;8.50;99.90
14097;DHT22;7125;48.106;11.544;2023-05-01T01:24:54;8.40;99.90
14097;DHT22;7125;48.106;11.544;2023-05-01T01:27:47;8.40;99.90
14097;DHT22;7125;48.106;11.544;2023-05-01T01:33:52;8.30;99.90
14097;DHT22;7125;48.106;11.544;2023-05-01T01:36:31;8.20;99.90
14097;DHT22;7125;48.106;11.544;2023-05-01T01:39:04;8.10;99.90
14097;DHT22;7125;48.106;11.544;2023-05-01T01:41:33;8.10;99.90
14097;DHT22;7125;48.106;11.544;2023-05-01T01:44:05;8.00;99.90
14097;DHT22;7125;48.106;11.544;2023-05-01T01:46:37;8.00;99.90
14097;DHT22;7125;48.106;11.544;2023-05-01T01:49:10;8.00;99.90
14097;DHT22;7125;48.106;11.544;2023-05-01T01:51:40;7.90;99.90
14097;DHT22;7125;48.106;11.544;2023-05-01T01:54:09;7.90;99.90
14097;DHT22;7125;48.106;11.544;2023-05-01T01:56:39;7.80;99.90
14097;DHT22;7125;48.106;11.544;2023-05-01T01:59:09;7.80;99.90
14097;DHT22;7125;48.106;11.544;2023-05-01T02:01:39;7.80;99.90
14097;DHT22;7125;48.106;11.544;2023-05-01T02:04:10;7.70;99.90
14097;DHT22;7125;48.106;11.544;2023-05-01T02:06:38;7.60;99.90
14097;DHT22;7125;48.106;11.544;2023-05-01T02:09:08;7.60;99.90
14097;DHT22;7125;48.106;11.544;2023-05-01T02:11:35;7.50;99.90
14097;DHT22;7125;48.106;11.544;2023-05-01T02:14:05;7.50;99.90
14097;DHT22;7125;48.106;11.544;2023-05-01T02:16:34;7.50;99.90
14097;DHT22;7125;48.106;11.544;2023-05-01T02:19:03;7.40;99.90
14097;DHT22;7125;48.106;11.544;2023-05-01T02:21:33;7.40;99.90
14097;DHT22;7125;48.106;11.544;2023-05-01T02:24:01;7.30;99.90
14097;DHT22;7125;48.106;11.544;2023-05-01T02:26:29;7.30;99.90
14097;DHT22;7125;48.106;11.544;2023-05-01T02:28:57;7.20;99.90
14097;DHT22;7125;48.106;11.544;2023-05-01T02:31:24;7.20;99.90
14097;DHT22;7125;48.106;11.544;2023-05-01T02:33:52;7.20;99.90
14097;DHT22;7125;48.106;11.544;2023-05-01T02:36:19;7.10;99.90
14097;DHT22;7125;48.106;11.544;2023-05-01T02:38:47;7.10;99.90
14097;DHT22;7125;48.106;11.544;2023-05-01T02:41:15;7.10;99.90
14097;DHT22;7125;48.106;11.544;2023-05-01T02:43:46;7.10;99.90
14097;DHT22;7125;48.106;11.544;2023-05-01T02:46:16;7.00;99.90
14097;DHT22;7125;48.106;11.544;2023-05-01T02:48:45;7.10;99.90
14097;DHT22;7125;48.106;11.544;2023-05-01T02:51:13;7.10;99.90
14097;DHT22;7125;48.106;11.544;2023-05-01T02:53:41;7.00;99.90
14097;DHT22;7125;48.106;11.544;2023-05-01T02:56:18;7.00;99.90
14097;DHT22;7125;48.106;11.544;2023-05-01T02:58:47;7.00;99.90
14097;DHT22;7125;48.106;11.544;2023-05-01T03:01:14;7.00;99.90
14097;DHT22;7125;48.106;11.544;2023-05-01T03:03:41;6.90;99.90
14097;DHT22;7125;48.106;11.544;2023-05-01T03:06:08;7.00;99.90
14097;DHT22;7125;48.106;11.544;2023-05-01T03:08:35;6.90;99.90
14097;DHT22;7125;48.106;11.544;2023-05-01T03:11:04;6.80;99.90
14097;DHT22;7125;48.106;11.544;2023-05-01T03:13:33;6.80;99.90
14097;DHT22;7125;48.106;11.544;2023-05-01T03:16:00;6.80;99.90
14097;DHT22;7125;48.106;11.544;2023-05-01T03:18:29;6.80;99.90
14097;DHT22;7125;48.106;11.544;2023-05-01T03:20:56;6.80;99.90
14097;DHT22;7125;48.106;11.544;2023-05-01T03:23:24;6.80;99.90
14097;DHT22;7125;48.106;11.544;2023-05-01T03:25:52;6.80;99.90
14097;DHT22;7125;48.106;11.544;2023-05-01T03:28:20;6.80;99.90
14097;DHT22;7125;48.106;11.544;2023-05-01T03:30:52;6.80;99.90
14097;DHT22;7125;48.106;11.544;2023-05-01T03:33:19;6.80;99.90
14097;DHT22;7125;48.106;11.544;2023-05-01T03:35:46;6.80;99.90
14097;DHT22;7125;48.106;11.544;2023-05-01T03:38:14;6.80;99.90
14097;DHT22;7125;48.106;11.544;2023-05-01T03:41:00;6.80;99.90
14097;DHT22;7125;48.106;11.544;2023-05-01T03:43:49;6.80;99.90
14097;DHT22;7125;48.106;11.544;2023-05-01T03:46:29;6.80;99.90
14097;DHT22;7125;48.106;11.544;2023-05-01T03:48:57;6.70;99.90
14097;DHT22;7125;48.106;11.544;2023-05-01T03:51:25;6.80;99.90
14097;DHT22;7125;48.106;11.544;2023-05-01T03:53:53;6.70;99.90
14097;DHT22;7125;48.106;11.544;2023-05-01T03:56:22;6.80;99.90
14097;DHT22;7125;48.106;11.544;2023-05-01T03:58:51;6.80;99.90
14097;DHT22;7125;48.106;11.544;2023-05-01T04:01:18;6.80;99.90
14097;DHT22;7125;48.106;11.544;2023-05-01T04:03:47;6.70;99.90
14097;DHT22;7125;48.106;11.544;2023-05-01T04:06:15;6.70;99.90
14097;DHT22;7125;48.106;11.544;2023-05-01T04:08:42;6.80;99.90
14097;DHT22;7125;48.106;11.544;2023-05-01T04:11:10;6.70;99.90
14097;DHT22;7125;48.106;11.544;2023-05-01T04:13:37;6.80;99.90
14097;DHT22;7125;48.106;11.544;2023-05-01T04:16:05;6.80;99.90
14097;DHT22;7125;48.106;11.544;2023-05-01T04:18:32;6.80;99.90
14097;DHT22;7125;48.106;11.544;2023-05-01T04:21:01;6.70;99.90
14097;DHT22;7125;48.106;11.544;2023-05-01T04:23:28;6.70;99.90
14097;DHT22;7125;48.106;11.544;2023-05-01T04:25:58;6.70;99.90
14097;DHT22;7125;48.106;11.544;2023-05-01T04:28:25;6.70;99.90
14097;DHT22;7125;48.106;11.544;2023-05-01T04:30:52;6.70;99.90
14097;DHT22;7125;48.106;11.544;2023-05-01T04:33:20;6.70;99.90
14097;DHT22;7125;48.106;11.544;2023-05-01T04:35:49;6.80;99.90
14097;DHT22;7125;48.106;11.544;2023-05-01T04:38:18;6.80;99.90
14097;DHT22;7125;48.106;11.544;2023-05-01T04:40:46;6.90;99.90
14097;DHT22;7125;48.106;11.544;2023-05-01T04:43:14;6.90;99.90
14097;DHT22;7125;48.106;11.544;2023-05-01T04:45:42;7.00;99.90
14097;DHT22;7125;48.106;11.544;2023-05-01T04:48:09;7.00;99.90
14097;DHT22;7125;48.106;11.544;2023-05-01T04:50:36;7.10;99.90
14097;DHT22;7125;48.106;11.544;2023-05-01T04:53:04;7.20;99.90
14097;DHT22;7125;48.106;11.544;2023-05-01T04:55:35;7.30;99.90
14097;DHT22;7125;48.106;11.544;2023-05-01T04:58:06;7.40;99.90
14097;DHT22;7125;48.106;11.544;2023-05-01T05:00:35;7.50;99.90
14097;DHT22;7125;48.106;11.544;2023-05-01T05:03:05;7.60;99.90
14097;DHT22;7125;48.106;11.544;2023-05-01T05:05:32;7.70;99.90
14097;DHT22;7125;48.106;11.544;2023-05-01T05:08:00;7.70;99.90
14097;DHT22;7125;48.106;11.544;2023-05-01T05:10:35;7.80;99.90
14097;DHT22;7125;48.106;11.544;2023-05-01T05:13:18;7.90;99.90
14097;DHT22;7125;48.106;11.544;2023-05-01T05:15:49;8.00;99.90
14097;DHT22;7125;48.106;11.544;2023-05-01T05:18:18;8.10;99.90
14097;DHT22;7125;48.106;11.544;2023-05-01T05:20:45;8.20;99.90
14097;DHT22;7125;48.106;11.544;2023-05-01T05:23:12;8.30;99.90
14097;DHT22;7125;48.106;11.544;2023-05-01T05:25:40;8.40;99.90
14097;DHT22;7125;48.106;11.544;2023-05-01T05:28:07;8.50;99.90
14097;DHT22;7125;48.106;11.544;2023-05-01T05:30:35;8.60;99.90
14097;DHT22;7125;48.106;11.544;2023-05-01T05:33:06;8.80;99.90
14097;DHT22;7125;48.106;11.544;2023-05-01T05:35:35;8.90;99.90
14097;DHT22;7125;48.106;11.544;2023-05-01T05:38:02;9.00;99.90
14097;DHT22;7125;48.106;11.544;2023-05-01T05:40:32;9.10;99.90
14097;DHT22;7125;48.106;11.544;2023-05-01T05:43:01;9.20;99.90
14097;DHT22;7125;48.106;11.544;2023-05-01T05:45:32;9.30;99.90
14097;DHT22;7125;48.106;11.544;2023-05-01T05:48:00;9.30;99.90
14097;DHT22;7125;48.106;11.544;2023-05-01T05:50:29;9.40;99.90
14097;DHT22;7125;48.106;11.544;2023-05-01T05:52:57;9.40;99.90
14097;DHT22;7125;48.106;11.544;2023-05-01T05:55:25;9.50;99.90
14097;DHT22;7125;48.106;11.544;2023-05-01T05:58:02;9.60;99.90
14097;DHT22;7125;48.106;11.544;2023-05-01T06:00:29;9.60;99.90
14097;DHT22;7125;48.106;11.544;2023-05-01T06:03:00;9.70;99.90
14097;DHT22;7125;48.106;11.544;2023-05-01T06:05:30;9.70;99.90
14097;DHT22;7125;48.106;11.544;2023-05-01T06:07:57;9.70;99.90
14097;DHT22;7125;48.106;11.544;2023-05-01T06:10:24;9.70;99.90
14097;DHT22;7125;48.106;11.544;2023-05-01T06:12:51;9.70;99.90
14097;DHT22;7125;48.106;11.544;2023-05-01T06:15:19;9.80;99.90
14097;DHT22;7125;48.106;11.544;2023-05-01T06:17:52;9.80;99.90
14097;DHT22;7125;48.106;11.544;2023-05-01T06:20:19;9.90;99.90
14097;DHT22;7125;48.106;11.544;2023-05-01T06:22:48;9.90;99.90
14097;DHT22;7125;48.106;11.544;2023-05-01T06:25:20;10.00;99.90
14097;DHT22;7125;48.106;11.544;2023-05-01T06:27:48;10.00;99.90
14097;DHT22;7125;48.106;11.544;2023-05-01T06:30:16;10.10;99.90
14097;DHT22;7125;48.106;11.544;2023-05-01T06:32:46;10.20;99.90
14097;DHT22;7125;48.106;11.544;2023-05-01T06:35:14;10.30;99.90
14097;DHT22;7125;48.106;11.544;2023-05-01T06:37:41;10.40;99.90
14097;DHT22;7125;48.106;11.544;2023-05-01T06:40:10;10.40;99.90
14097;DHT22;7125;48.106;11.544;2023-05-01T06:42:37;10.40;99.90
14097;DHT22;7125;48.106;11.544;2023-05-01T06:45:06;10.50;99.90
14097;DHT22;7125;48.106;11.544;2023-05-01T06:47:34;10.60;99.90
14097;DHT22;7125;48.106;11.544;2023-05-01T06:50:02;10.60;99.90
14097;DHT22;7125;48.106;11.544;2023-05-01T06:52:32;10.70;99.90
14097;DHT22;7125;48.106;11.544;2023-05-01T06:54:59;10.70;99.90
14097;DHT22;7125;48.106;11.544;2023-05-01T06:57:26;10.80;99.90
14097;DHT22;7125;48.106;11.544;2023-05-01T06:59:53;10.90;99.90
14097;DHT22;7125;48.106;11.544;2023-05-01T07:02:21;10.90;99.90
14097;DHT22;7125;48.106;11.544;2023-05-01T07:04:48;11.00;99.90
14097;DHT22;7125;48.106;11.544;2023-05-01T07:07:16;11.10;99.90
14097;DHT22;7125;48.106;11.544;2023-05-01T07:09:43;11.10;99.90
14097;DHT22;7125;48.106;11.544;2023-05-01T07:12:10;11.20;99.90
14097;DHT22;7125;48.106;11.544;2023-05-01T07:14:37;11.20;99.90
14097;DHT22;7125;48.106;11.544;2023-05-01T07:17:04;11.20;99.90
14097;DHT22;7125;48.106;11.544;2023-05-01T07:19:31;11.20;99.90
14097;DHT22;7125;48.106;11.544;2023-05-01T07:21:58;11.40;99.90
14097;DHT22;7125;48.106;11.544;2023-05-01T07:24:27;11.50;99.90
14097;DHT22;7125;48.106;11.544;2023-05-01T07:26:54;11.50;99.90
14097;DHT22;7125;48.106;11.544;2023-05-01T07:29:21;11.70;99.90
14097;DHT22;7125;48.106;11.544;2023-05-01T07:31:48;11.70;99.90
14097;DHT22;7125;48.106;11.544;2023-05-01T07:34:15;11.80;99.90
14097;DHT22;7125;48.106;11.544;2023-05-01T07:36:42;11.80;99.90
14097;DHT22;7125;48.106;11.544;2023-05-01T07:39:09;11.90;99.90
14097;DHT22;7125;48.106;11.544;2023-05-01T07:41:38;12.00;99.90
14097;DHT22;7125;48.106;11.544;2023-05-01T07:44:05;12.20;99.90
14097;DHT22;7125;48.106;11.544;2023-05-01T07:46:31;12.40;99.90
14097;DHT22;7125;48.106;11.544;2023-05-01T07:49:00;12.50;99.90
14097;DHT22;7125;48.106;11.544;2023-05-01T07:51:30;12.60;99.90
14097;DHT22;7125;48.106;11.544;2023-05-01T07:53:57;12.60;99.90
14097;DHT22;7125;48.106;11.544;2023-05-01T07:56:28;12.60;99.90
14097;DHT22;7125;48.106;11.544;2023-05-01T07:58:56;12.70;99.90
14097;DHT22;7125;48.106;11.544;2023-05-01T08:01:23;12.80;99.90
14097;DHT22;7125;48.106;11.544;2023-05-01T08:03:50;12.80;99.90
14097;DHT22;7125;48.106;11.544;2023-05-01T08:06:17;12.80;99.90
14097;DHT22;7125;48.106;11.544;2023-05-01T08:08:44;12.80;99.90
14097;DHT22;7125;48.106;11.544;2023-05-01T08:11:11;12.80;99.90
14097;DHT22;7125;48.106;11.544;2023-05-01T08:13:38;12.80;99.90
14097;DHT22;7125;48.106;11.544;2023-05-01T08:16:06;12.80;99.90
14097;DHT22;7125;48.106;11.544;2023-05-01T08:18:33;12.70;99.90
14097;DHT22;7125;48.106;11.544;2023-05-01T08:21:00;12.70;99.90
14097;DHT22;7125;48.106;11.544;2023-05-01T08:23:28;12.70;99.90
14097;DHT22;7125;48.106;11.544;2023-05-01T08:25:55;12.70;99.90
14097;DHT22;7125;48.106;11.544;2023-05-01T08:28:22;12.70;99.90
14097;DHT22;7125;48.106;11.544;2023-05-01T08:30:49;12.80;99.90
14097;DHT22;7125;48.106;11.544;2023-05-01T08:33:18;12.80;99.90
14097;DHT22;7125;48.106;11.544;2023-05-01T08:35:45;12.80;99.90
14097;DHT22;7125;48.106;11.544;2023-05-01T08:38:13;12.90;99.90
14097;DHT22;7125;48.106;11.544;2023-05-01T08:40:46;12.90;99.90
14097;DHT22;7125;48.106;11.544;2023-05-01T08:43:14;12.80;99.90
14097;DHT22;7125;48.106;11.544;2023-05-01T08:45:42;12.80;99.90
14097;DHT22;7125;48.106;11.544;2023-05-01T08:48:10;12.90;99.90
14097;DHT22;7125;48.106;11.544;2023-05-01T08:50:40;12.80;99.90
14097;DHT22;7125;48.106;11.544;2023-05-01T08:53:11;12.70;99.90
14097;DHT22;7125;48.106;11.544;2023-05-01T08:55:39;12.70;99.90
14097;DHT22;7125;48.106;11.544;2023-05-01T08:58:12;12.70;99.90
14097;DHT22;7125;48.106;11.544;2023-05-01T09:00:40;12.70;99.90
14097;DHT22;7125;48.106;11.544;2023-05-01T09:03:10;12.70;99.90
14097;DHT22;7125;48.106;11.544;2023-05-01T09:05:39;12.70;99.90
14097;DHT22;7125;48.106;11.544;2023-05-01T09:08:07;12.60;99.90
14097;DHT22;7125;48.106;11.544;2023-05-01T09:10:40;12.60;99.90
14097;DHT22;7125;48.106;11.544;2023-05-01T09:13:07;12.50;99.90
14097;DHT22;7125;48.106;11.544;2023-05-01T09:15:35;12.40;99.90
14097;DHT22;7125;48.106;11.544;2023-05-01T09:18:01;12.30;99.90
14097;DHT22;7125;48.106;11.544;2023-05-01T09:20:30;12.30;99.90
14097;DHT22;7125;48.106;11.544;2023-05-01T09:22:59;12.10;99.90
14097;DHT22;7125;48.106;11.544;2023-05-01T09:25:27;11.90;99.90
14097;DHT22;7125;48.106;11.544;2023-05-01T09:27:55;11.80;99.90
14097;DHT22;7125;48.106;11.544;2023-05-01T09:30:33;11.70;99.90
14097;DHT22;7125;48.106;11.544;2023-05-01T09:33:08;11.50;99.90
14097;DHT22;7125;48.106;11.544;2023-05-01T09:35:52;11.30;99.90
14097;DHT22;7125;48.106;11.544;2023-05-01T09:38:23;11.20;99.90
14097;DHT22;7125;48.106;11.544;2023-05-01T09:40:51;11.10;99.90
14097;DHT22;7125;48.106;11.544;2023-05-01T09:43:25;11.00;99.90
14097;DHT22;7125;48.106;11.544;2023-05-01T09:45:59;10.90;99.90
14097;DHT22;7125;48.106;11.544;2023-05-01T09:48:28;10.80;99.90
14097;DHT22;7125;48.106;11.544;2023-05-01T09:50:57;10.80;99.90
14097;DHT22;7125;48.106;11.544;2023-05-01T09:53:36;10.70;99.90
14097;DHT22;7125;48.106;11.544;2023-05-01T09:56:04;10.60;99.90
14097;DHT22;7125;48.106;11.544;2023-05-01T09:58:39;10.60;99.90
14097;DHT22;7125;48.106;11.544;2023-05-01T10:01:06;10.50;99.90
14097;DHT22;7125;48.106;11.544;2023-05-01T10:03:34;10.40;99.90
14097;DHT22;7125;48.106;11.544;2023-05-01T10:06:01;10.40;99.90
14097;DHT22;7125;48.106;11.544;2023-05-01T10:08:46;10.30;99.90
14097;DHT22;7125;48.106;11.544;2023-05-01T10:11:13;10.40;99.90
14097;DHT22;7125;48.106;11.544;2023-05-01T10:13:40;10.30;99.90
14097;DHT22;7125;48.106;11.544;2023-05-01T10:16:28;10.30;99.90
14097;DHT22;7125;48.106;11.544;2023-05-01T10:18:56;10.20;99.90
14097;DHT22;7125;48.106;11.544;2023-05-01T10:21:23;10.20;99.90
14097;DHT22;7125;48.106;11.544;2023-05-01T10:23:52;10.20;99.90
14097;DHT22;7125;48.106;11.544;2023-05-01T10:26:20;10.20;99.90
14097;DHT22;7125;48.106;11.544;2023-05-01T10:28:48;10.20;99.90
14097;DHT22;7125;48.106;11.544;2023-05-01T10:31:16;10.10;99.90
14097;DHT22;7125;48.106;11.544;2023-05-01T10:33:44;10.20;99.90
14097;DHT22;7125;48.106;11.544;2023-05-01T10:36:16;10.20;99.90
14097;DHT22;7125;48.106;11.544;2023-05-01T10:38:44;10.20;99.90
14097;DHT22;7125;48.106;11.544;2023-05-01T10:41:14;10.10;99.90
14097;DHT22;7125;48.106;11.544;2023-05-01T10:43:42;10.20;99.90
14097;DHT22;7125;48.106;11.544;2023-05-01T10:46:26;10.20;99.90
14097;DHT22;7125;48.106;11.544;2023-05-01T10:48:55;10.30;99.90
14097;DHT22;7125;48.106;11.544;2023-05-01T10:51:24;10.30;99.90
14097;DHT22;7125;48.106;11.544;2023-05-01T10:54:26;10.40;99.90
14097;DHT22;7125;48.106;11.544;2023-05-01T10:56:56;10.40;99.90
14097;DHT22;7125;48.106;11.544;2023-05-01T10:59:26;10.40;99.90
14097;DHT22;7125;48.106;11.544;2023-05-01T11:01:53;10.40;99.90
14097;DHT22;7125;48.106;11.544;2023-05-01T11:07:24;10.40;99.90
14097;DHT22;7125;48.106;11.544;2023-05-01T11:09:53;10.50;99.90
14097;DHT22;7125;48.106;11.544;2023-05-01T11:12:50;10.50;99.90
14097;DHT22;7125;48.106;11.544;2023-05-01T11:15:25;10.50;99.90
14097;DHT22;7125;48.106;11.544;2023-05-01T11:18:01;10.50;99.90
14097;DHT22;7125;48.106;11.544;2023-05-01T11:20:49;10.50;99.90
14097;DHT22;7125;48.106;11.544;2023-05-01T11:23:18;10.50;99.90
14097;DHT22;7125;48.106;11.544;2023-05-01T11:25:46;10.50;99.90
14097;DHT22;7125;48.106;11.544;2023-05-01T11:28:20;10.50;99.90
14097;DHT22;7125;48.106;11.544;2023-05-01T11:30:50;10.50;99.90
14097;DHT22;7125;48.106;11.544;2023-05-01T11:33:24;10.60;99.90
14097;DHT22;7125;48.106;11.544;2023-05-01T11:35:59;10.60;99.90
14097;DHT22;7125;48.106;11.544;2023-05-01T11:38:27;10.60;99.90
14097;DHT22;7125;48.106;11.544;2023-05-01T11:40:57;10.60;99.90
14097;DHT22;7125;48.106;11.544;2023-05-01T11:43:26;10.70;99.90
14097;DHT22;7125;48.106;11.544;2023-05-01T11:45:53;10.80;99.90
14097;DHT22;7125;48.106;11.544;2023-05-01T11:48:31;10.80;99.90
14097;DHT22;7125;48.106;11.544;2023-05-01T11:50:59;10.90;99.90
14097;DHT22;7125;48.106;11.544;2023-05-01T11:53:26;10.80;99.90
14097;DHT22;7125;48.106;11.544;2023-05-01T11:55:54;10.90;99.90
14097;DHT22;7125;48.106;11.544;2023-05-01T11:58:32;11.10;99.90
14097;DHT22;7125;48.106;11.544;2023-05-01T12:01:00;11.30;99.90
14097;DHT22;7125;48.106;11.544;2023-05-01T12:03:31;11.50;99.90
14097;DHT22;7125;48.106;11.544;2023-05-01T12:06:07;11.60;99.90
14097;DHT22;7125;48.106;11.544;2023-05-01T12:08:34;11.70;99.90
14097;DHT22;7125;48.106;11.544;2023-05-01T12:11:03;11.80;99.90
14097;DHT22;7125;48.106;11.544;2023-05-01T12:13:34;11.80;99.90
14097;DHT22;7125;48.106;11.544;2023-05-01T12:16:01;11.90;99.90
14097;DHT22;7125;48.106;11.544;2023-05-01T12:18:29;11.90;99.90
14097;DHT22;7125;48.106;11.544;2023-05-01T12:20:56;11.90;99.90
14097;DHT22;7125;48.106;11.544;2023-05-01T12:23:30;12.00;99.90
14097;DHT22;7125;48.106;11.544;2023-05-01T12:25:57;12.00;99.90
14097;DHT22;7125;48.106;11.544;2023-05-01T12:28:24;12.00;99.90
14097;DHT22;7125;48.106;11.544;2023-05-01T12:31:00;12.10;99.90
14097;DHT22;7125;48.106;11.544;2023-05-01T12:33:27;12.20;99.90
14097;DHT22;7125;48.106;11.544;2023-05-01T12:35:55;12.30;99.90
14097;DHT22;7125;48.106;11.544;2023-05-01T12:38:34;12.40;99.90
14097;DHT22;7125;48.106;11.544;2023-05-01T12:41:01;12.40;99.90
14097;DHT22;7125;48.106;11.544;2023-05-01T12:43:34;12.50;99.90
14097;DHT22;7125;48.106;11.544;2023-05-01T12:46:03;12.40;99.90
14097;DHT22;7125;48.106;11.544;2023-05-01T12:48:32;12.40;99.90
14097;DHT22;7125;48.106;11.544;2023-05-01T12:50:59;12.50;99.90
14097;DHT22;7125;48.106;11.544;2023-05-01T12:53:27;12.70;99.90
14097;DHT22;7125;48.106;11.544;2023-05-01T12:55:55;12.80;99.90
14097;DHT22;7125;48.106;11.544;2023-05-01T12:58:23;12.80;99.90
14097;DHT22;7125;48.106;11.544;2023-05-01T13:00:51;12.80;99.90
14097;DHT22;7125;48.106;11.544;2023-05-01T13:03:23;12.80;99.90
14097;DHT22;7125;48.106;11.544;2023-05-01T13:05:52;12.90;99.90
14097;DHT22;7125;48.106;11.544;2023-05-01T13:11:25;13.10;99.90
14097;DHT22;7125;48.106;11.544;2023-05-01T13:13:52;13.20;99.90
14097;DHT22;7125;48.106;11.544;2023-05-01T13:16:21;13.30;99.90
14097;DHT22;7125;48.106;11.544;2023-05-01T13:18:51;13.30;99.90
14097;DHT22;7125;48.106;11.544;2023-05-01T13:21:26;13.40;99.90
14097;DHT22;7125;48.106;11.544;2023-05-01T13:23:55;13.40;99.90
14097;DHT22;7125;48.106;11.544;2023-05-01T13:26:26;13.40;99.90
14097;DHT22;7125;48.106;11.544;2023-05-01T13:28:55;13.40;99.90
14097;DHT22;7125;48.106;11.544;2023-05-01T13:31:23;13.50;99.90
14097;DHT22;7125;48.106;11.544;2023-05-01T13:33:53;13.50;99.90
14097;DHT22;7125;48.106;11.544;2023-05-01T13:36:20;13.50;99.90
14097;DHT22;7125;48.106;11.544;2023-05-01T13:38:49;13.50;99.90
14097;DHT22;7125;48.106;11.544;2023-05-01T13:41:20;13.60;99.90
14097;DHT22;7125;48.106;11.544;2023-05-01T13:43:47;13.60;99.90
14097;DHT22;7125;48.106;11.544;2023-05-01T13:46:16;13.50;99.90
14097;DHT22;7125;48.106;11.544;2023-05-01T13:48:44;13.50;99.90
14097;DHT22;7125;48.106;11.544;2023-05-01T13:51:18;13.40;99.90
14097;DHT22;7125;48.106;11.544;2023-05-01T13:53:46;13.40;99.90
14097;DHT22;7125;48.106;11.544;2023-05-01T13:56:12;13.30;99.90
14097;DHT22;7125;48.106;11.544;2023-05-01T13:58:40;13.30;99.90
14097;DHT22;7125;48.106;11.544;2023-05-01T14:01:14;13.30;99.90
14097;DHT22;7125;48.106;11.544;2023-05-01T14:03:42;13.40;99.90
14097;DHT22;7125;48.106;11.544;2023-05-01T14:06:09;13.40;99.90
14097;DHT22;7125;48.106;11.544;2023-05-01T14:08:38;13.40;99.90
14097;DHT22;7125;48.106;11.544;2023-05-01T14:11:06;13.40;99.90
14097;DHT22;7125;48.106;11.544;2023-05-01T14:13:35;13.40;99.90
14097;DHT22;7125;48.106;11.544;2023-05-01T14:16:05;13.50;99.90
14097;DHT22;7125;48.106;11.544;2023-05-01T14:18:35;13.50;99.90
14097;DHT22;7125;48.106;11.544;2023-05-01T14:21:02;13.60;99.90
14097;DHT22;7125;48.106;11.544;2023-05-01T14:23:30;13.60;99.90
14097;DHT22;7125;48.106;11.544;2023-05-01T14:25:59;13.60;99.90
14097;DHT22;7125;48.106;11.544;2023-05-01T14:28:26;13.70;99.90
14097;DHT22;7125;48.106;11.544;2023-05-01T14:30:53;13.70;99.90
14097;DHT22;7125;48.106;11.544;2023-05-01T14:33:20;13.80;99.90
14097;DHT22;7125;48.106;11.544;2023-05-01T14:35:49;13.80;99.90
14097;DHT22;7125;48.106;11.544;2023-05-01T14:38:17;13.80;99.90
14097;DHT22;7125;48.106;11.544;2023-05-01T14:40:47;13.80;99.90
14097;DHT22;7125;48.106;11.544;2023-05-01T14:43:16;13.80;99.90
14097;DHT22;7125;48.106;11.544;2023-05-01T14:45:44;13.80;99.90
14097;DHT22;7125;48.106;11.544;2023-05-01T14:48:20;13.70;99.90
14097;DHT22;7125;48.106;11.544;2023-05-01T14:50:48;13.70;99.90
14097;DHT22;7125;48.106;11.544;2023-05-01T14:53:16;13.60;99.90
14097;DHT22;7125;48.106;11.544;2023-05-01T14:55:43;13.50;99.90
14097;DHT22;7125;48.106;11.544;2023-05-01T14:58:15;13.40;99.90
14097;DHT22;7125;48.106;11.544;2023-05-01T15:00:42;13.40;99.90
14097;DHT22;7125;48.106;11.544;2023-05-01T15:03:09;13.30;99.90
14097;DHT22;7125;48.106;11.544;2023-05-01T15:05:36;13.20;99.90
14097;DHT22;7125;48.106;11.544;2023-05-01T15:08:07;13.20;99.90
14097;DHT22;7125;48.106;11.544;2023-05-01T15:10:34;13.20;99.90
14097;DHT22;7125;48.106;11.544;2023-05-01T15:13:03;13.10;99.90
14097;DHT22;7125;48.106;11.544;2023-05-01T15:15:32;13.10;99.90
14097;DHT22;7125;48.106;11.544;2023-05-01T15:17:59;13.00;99.90
14097;DHT22;7125;48.106;11.544;2023-05-01T15:20:30;13.00;99.90
14097;DHT22;7125;48.106;11.544;2023-05-01T15:22:58;12.90;99.90
14097;DHT22;7125;48.106;11.544;2023-05-01T15:25:25;12.90;99.90
14097;DHT22;7125;48.106;11.544;2023-05-01T15:27:52;12.80;99.90
14097;DHT22;7125;48.106;11.544;2023-05-01T15:30:19;12.80;99.90
14097;DHT22;7125;48.106;11.544;2023-05-01T15:32:47;12.80;99.90
14097;DHT22;7125;48.106;11.544;2023-05-01T15:35:14;12.70;99.90
14097;DHT22;7125;48.106;11.544;2023-05-01T15:37:41;12.70;99.90
14097;DHT22;7125;48.106;11.544;2023-05-01T15:40:09;12.70;99.90
14097;DHT22;7125;48.106;11.544;2023-05-01T15:42:36;12.60;99.90
14097;DHT22;7125;48.106;11.544;2023-05-01T15:45:04;12.60;99.90
14097;DHT22;7125;48.106;11.544;2023-05-01T15:47:31;12.50;99.90
14097;DHT22;7125;48.106;11.544;2023-05-01T15:50:02;12.40;99.90
14097;DHT22;7125;48.106;11.544;2023-05-01T15:52:29;12.30;99.90
14097;DHT22;7125;48.106;11.544;2023-05-01T15:54:56;12.30;99.90
14097;DHT22;7125;48.106;11.544;2023-05-01T15:57:23;12.30;99.90
14097;DHT22;7125;48.106;11.544;2023-05-01T15:59:50;12.20;99.90
14097;DHT22;7125;48.106;11.544;2023-05-01T16:02:18;12.20;99.90